Time;durP1;ratioP1;P1;durP2;ratioP2;P2;SDS_P1;SDS_P2;PMS_P1;PMS_P2;Temp;Humidity;BMP_temperature;BMP_pressure;BME280_temperature;BME280_humidity;BME280_pressure;Samples;Min_cycle;Max_cycle;Signal;HPM_P1;HPM_P2
2022/12/24 00:01:34;;;;;;;63.17;56.42;;;;;;;2.73;74.21;94784.06;5096924;28;20212;-70
2022/12/24 00:04:01;;;;;;;55.83;50.10;;;;;;;2.65;75.10;94791.88;5096768;28;20200;-70
2022/12/24 00:06:28;;;;;;;59.20;53.05;;;;;;;2.68;74.58;94792.34;5096722;28;20209;-70
2022/12/24 00:08:55;;;;;;;61.28;55.08;;;;;;;2.63;74.59;94793.28;5097037;28;20199;-70
2022/12/24 00:11:21;;;;;;;62.95;56.53;;;;;;;2.59;74.91;94795.03;5096705;28;20215;-70
2022/12/24 00:13:50;;;;;;;60.40;54.08;;;;;;;2.59;74.56;94800.47;5096967;28;20559;-70
2022/12/24 00:16:17;;;;;;;55.85;50.05;;;;;;;2.60;74.46;94796.63;5096552;28;20540;-70
2022/12/24 00:18:43;;;;;;;49.95;44.92;;;;;;;2.61;74.74;94795.50;5096506;28;20196;-70
2022/12/24 00:21:10;;;;;;;45.28;40.40;;;;;;;2.70;75.50;94803.75;5096762;28;20294;-70
2022/12/24 00:23:37;;;;;;;43.58;39.20;;;;;;;2.75;75.27;94801.69;5096932;28;20200;-70
2022/12/24 00:26:04;;;;;;;48.08;43.38;;;;;;;2.80;74.88;94798.88;5096669;28;20208;-70
2022/12/24 00:28:30;;;;;;;45.55;40.97;;;;;;;2.76;74.72;94795.16;5096411;28;20193;-70
2022/12/24 00:30:59;;;;;;;43.17;38.90;;;;;;;2.74;74.79;94782.94;5096452;28;20204;-70
2022/12/24 00:33:26;;;;;;;49.67;44.70;;;;;;;2.69;75.30;94793.94;5096398;28;20200;-70
2022/12/24 00:35:53;;;;;;;46.22;41.72;;;;;;;2.62;75.02;94783.53;5096505;28;20193;-70
2022/12/24 00:38:19;;;;;;;51.75;46.63;;;;;;;2.60;74.80;94791.19;5096060;28;20235;-70
2022/12/24 00:40:46;;;;;;;44.90;40.53;;;;;;;2.58;75.19;94801.59;5096485;28;20201;-70
2022/12/24 00:43:13;;;;;;;50.70;45.60;;;;;;;2.55;75.04;94791.31;5096130;28;20224;-70
2022/12/24 00:45:40;;;;;;;48.90;43.65;;;;;;;2.54;74.75;94789.69;5096353;28;20195;-70
2022/12/24 00:48:08;;;;;;;48.67;43.95;;;;;;;2.57;74.91;94794.50;5096274;28;20527;-70
2022/12/24 00:50:35;;;;;;;47.13;42.63;;;;;;;2.54;74.90;94795.13;5096155;28;20192;-70
2022/12/24 00:53:01;;;;;;;45.80;41.00;;;;;;;2.51;74.72;94793.84;5096459;28;20192;-70
2022/12/24 00:55:28;;;;;;;42.08;37.78;;;;;;;2.50;74.49;94800.38;5096317;28;20181;-70
2022/12/24 00:57:55;;;;;;;39.55;35.55;;;;;;;2.48;74.69;94793.66;5096046;28;20189;-70
2022/12/24 01:00:22;;;;;;;36.50;32.78;;;;;;;2.44;74.45;94801.63;5095959;28;20196;-70
2022/12/24 01:02:49;;;;;;;33.75;30.30;;;;;;;2.43;74.91;94800.00;5096049;28;20216;-70
2022/12/24 01:05:19;;;;;;;33.67;30.35;;;;;;;2.42;75.08;94796.47;5096284;28;20204;-70
2022/12/24 01:07:46;;;;;;;33.88;30.48;;;;;;;2.45;75.12;94799.72;5095474;28;20534;-70
2022/12/24 01:10:19;;;;;;;34.35;31.00;;;;;;;2.42;74.70;94806.56;5095911;28;20203;-70
2022/12/24 01:12:46;;;;;;;32.90;29.58;;;;;;;2.41;75.31;94813.94;5096462;28;20201;-70
2022/12/24 01:15:14;;;;;;;33.20;29.92;;;;;;;2.46;75.64;94806.75;5095924;28;20261;-70
2022/12/24 01:17:42;;;;;;;32.20;28.77;;;;;;;2.45;75.63;94816.84;5095692;28;20204;-70
2022/12/24 01:20:14;;;;;;;33.28;29.92;;;;;;;2.46;74.93;94806.75;5095453;28;20196;-70
2022/12/24 01:22:42;;;;;;;34.70;31.05;;;;;;;2.48;75.41;94799.09;5094356;28;20552;-71
2022/12/24 01:25:09;;;;;;;33.65;30.45;;;;;;;2.47;74.89;94795.59;5095495;28;20199;-70
2022/12/24 01:27:36;;;;;;;33.78;30.38;;;;;;;2.41;75.02;94784.00;5095248;28;20625;-70
2022/12/24 01:30:04;;;;;;;36.38;32.78;;;;;;;2.37;74.31;94783.00;5095401;28;20208;-69
2022/12/24 01:32:31;;;;;;;34.92;31.52;;;;;;;2.36;74.60;94789.56;5095343;28;20200;-69
2022/12/24 01:34:58;;;;;;;33.63;30.23;;;;;;;2.34;74.10;94802.66;5095559;28;20205;-70
2022/12/24 01:37:25;;;;;;;31.48;28.45;;;;;;;2.29;74.69;94802.00;5095539;28;20195;-70
2022/12/24 01:43:22;;;;;;;34.35;30.88;;;;;;;2.27;74.82;94809.66;5094867;28;20235;-70
2022/12/24 01:45:46;;;;;;;30.58;27.70;;;;;;;2.22;75.03;94794.25;5095090;28;20196;-70
2022/12/24 01:48:20;;;;;;;30.05;27.15;;;;;;;2.25;75.04;94788.19;5094830;28;20254;-70
2022/12/24 01:50:47;;;;;;;31.48;28.33;;;;;;;2.24;74.94;94791.22;5095283;28;20192;-70
2022/12/24 01:53:15;;;;;;;31.88;28.88;;;;;;;2.22;74.76;94796.16;5095263;28;20205;-70
2022/12/24 01:55:44;;;;;;;31.27;28.27;;;;;;;2.15;74.64;94802.03;5094770;28;20245;-70
2022/12/24 01:58:11;;;;;;;31.30;28.25;;;;;;;2.11;74.75;94799.09;5095155;28;20208;-70
2022/12/24 02:00:37;;;;;;;30.58;27.63;;;;;;;2.12;74.73;94791.75;5094969;28;20207;-70
2022/12/24 02:03:04;;;;;;;30.20;27.20;;;;;;;2.13;74.78;94790.63;5094909;28;20219;-70
2022/12/24 02:05:35;;;;;;;31.05;28.10;;;;;;;2.11;74.48;94788.22;5094851;28;20526;-70
2022/12/24 02:08:04;;;;;;;29.95;26.92;;;;;;;2.07;74.72;94791.84;5094647;28;20200;-70
2022/12/24 02:10:31;;;;;;;30.58;27.55;;;;;;;2.04;75.03;94787.84;5094457;28;20200;-70
2022/12/24 02:13:00;;;;;;;31.27;28.33;;;;;;;2.02;74.79;94784.59;5094889;28;20222;-70
2022/12/24 02:15:29;;;;;;;31.30;28.15;;;;;;;1.98;75.24;94793.69;5094979;28;20188;-70
2022/12/24 02:18:00;;;;;;;28.70;26.10;;;;;;;1.98;74.77;94788.25;5094448;28;20204;-70
2022/12/24 02:20:43;;;;;;;25.75;23.35;;;;;;;1.96;75.26;94788.56;5094537;28;20196;-70
2022/12/24 02:23:28;;;;;;;23.85;21.65;;;;;;;1.98;75.89;94789.06;5094133;28;20690;-70
2022/12/24 02:26:08;;;;;;;23.70;21.50;;;;;;;2.04;76.05;94797.91;5094514;28;20195;-70
2022/12/24 02:28:47;;;;;;;23.27;21.05;;;;;;;2.04;75.31;94796.00;5094407;28;20207;-70
2022/12/24 02:31:18;;;;;;;23.27;21.20;;;;;;;2.04;75.84;94793.28;5094286;28;20257;-70
2022/12/24 02:33:47;;;;;;;23.10;20.98;;;;;;;2.05;76.01;94789.44;5094152;28;20188;-70
2022/12/24 02:36:20;;;;;;;22.45;20.45;;;;;;;2.07;75.87;94792.66;5094482;28;20204;-70
2022/12/24 02:38:49;;;;;;;27.45;24.77;;;;;;;2.05;75.34;94794.88;5094139;28;20683;-69
2022/12/24 02:41:18;;;;;;;25.23;22.83;;;;;;;1.99;74.55;94787.13;5094791;28;20601;-69
2022/12/24 02:43:47;;;;;;;24.73;22.35;;;;;;;1.93;74.73;94789.97;5094372;28;20208;-70
2022/12/24 02:46:18;;;;;;;24.42;22.13;;;;;;;1.87;74.75;94784.94;5094135;28;20206;-70
2022/12/24 02:48:47;;;;;;;24.30;22.02;;;;;;;1.79;75.56;94772.88;5094621;28;20192;-70
2022/12/24 02:51:14;;;;;;;23.60;21.42;;;;;;;1.82;75.52;94777.72;5094230;28;20203;-70
2022/12/24 02:53:42;;;;;;;22.25;20.25;;;;;;;1.83;76.01;94768.44;5094556;28;20200;-70
2022/12/24 02:56:35;;;;;;;22.35;20.20;;;;;;;1.88;75.64;94760.16;5093950;28;20192;-70
2022/12/24 02:59:26;;;;;;;24.52;22.23;;;;;;;1.83;75.50;94775.78;5094811;28;20646;-70
2022/12/24 03:01:58;;;;;;;22.90;20.77;;;;;;;1.82;75.75;94764.09;5094195;28;20188;-70
2022/12/24 03:04:39;;;;;;;23.27;21.08;;;;;;;1.85;75.86;94770.84;5094178;28;20544;-70
2022/12/24 03:07:10;;;;;;;23.52;21.23;;;;;;;1.88;75.61;94768.31;5094517;28;20215;-70
2022/12/24 03:09:41;;;;;;;24.85;22.45;;;;;;;1.87;75.19;94772.16;5094268;28;20197;-70
2022/12/24 03:12:10;;;;;;;23.83;21.48;;;;;;;1.79;74.94;94766.63;5094268;28;20204;-70
2022/12/24 03:14:38;;;;;;;23.40;21.20;;;;;;;1.74;75.13;94772.97;5094310;28;20201;-72
2022/12/24 03:17:06;;;;;;;24.48;21.90;;;;;;;1.69;74.92;94773.09;5094434;28;20192;-73
2022/12/24 03:19:34;;;;;;;23.00;20.80;;;;;;;1.62;75.53;94769.97;5093718;28;20188;-73
2022/12/24 03:22:04;;;;;;;22.92;20.73;;;;;;;1.66;75.40;94768.25;5094111;28;20201;-70
2022/12/24 03:24:31;;;;;;;23.42;21.25;;;;;;;1.71;76.02;94767.31;5093642;28;20200;-70
2022/12/24 03:26:59;;;;;;;23.83;21.58;;;;;;;1.73;75.88;94762.41;5093859;28;20196;-70
2022/12/24 03:29:26;;;;;;;23.25;20.98;;;;;;;1.72;75.31;94768.97;5094082;28;20196;-70
2022/12/24 03:31:53;;;;;;;21.95;19.85;;;;;;;1.70;76.15;94763.81;5093670;28;20228;-70
2022/12/24 03:34:22;;;;;;;22.77;20.58;;;;;;;1.73;76.08;94765.91;5092964;28;20196;-70
2022/12/24 03:36:49;;;;;;;23.33;21.15;;;;;;;1.72;75.92;94775.19;5094166;28;20287;-70
2022/12/24 03:39:16;;;;;;;24.35;21.95;;;;;;;1.64;75.23;94770.47;5093511;28;20232;-70
2022/12/24 03:41:43;;;;;;;23.08;20.90;;;;;;;1.62;74.66;94770.78;5093698;28;20197;-70
2022/12/24 03:44:10;;;;;;;22.80;20.55;;;;;;;1.61;75.08;94773.81;5093490;28;20224;-70
2022/12/24 03:46:36;;;;;;;24.05;21.70;;;;;;;1.59;75.10;94778.72;5094979;28;20196;-70
2022/12/24 03:49:03;;;;;;;24.20;21.63;;;;;;;1.54;75.23;94778.84;5097264;28;20207;-70
2022/12/24 03:51:32;;;;;;;24.92;22.52;;;;;;;1.54;75.63;94778.84;5097478;28;20193;-70
2022/12/24 03:53:59;;;;;;;23.02;20.88;;;;;;;1.52;74.81;94772.88;5097545;28;20273;-70
2022/12/24 03:56:26;;;;;;;24.42;22.13;;;;;;;1.48;75.20;94775.41;5097259;28;20196;-70
2022/12/24 03:58:53;;;;;;;23.02;20.85;;;;;;;1.51;75.51;94779.44;5097309;28;20211;-71
2022/12/24 04:01:20;;;;;;;24.42;22.02;;;;;;;1.54;75.34;94785.06;5097357;28;20196;-70
2022/12/24 04:03:47;;;;;;;23.40;21.05;;;;;;;1.52;75.15;94790.00;5097321;28;20557;-70
2022/12/24 04:06:16;;;;;;;21.70;19.60;;;;;;;1.50;75.16;94794.16;5096876;28;20215;-70
2022/12/24 04:08:44;;;;;;;22.40;20.17;;;;;;;1.50;75.66;94805.03;5097098;28;20612;-70
2022/12/24 04:11:14;;;;;;;23.25;21.08;;;;;;;1.53;75.30;94809.84;5097131;28;20204;-70
2022/12/24 04:13:40;;;;;;;22.88;20.77;;;;;;;1.54;76.03;94814.97;5096709;28;20617;-70
2022/12/24 04:16:10;;;;;;;22.85;20.65;;;;;;;1.52;75.93;94800.88;5096679;28;20192;-70
2022/12/24 04:18:37;;;;;;;22.95;20.83;;;;;;;1.58;76.67;94799.66;5096869;28;20196;-70
2022/12/24 04:21:05;;;;;;;24.20;21.90;;;;;;;1.64;76.59;94800.38;5096593;28;20204;-70
2022/12/24 04:23:33;;;;;;;24.80;22.40;;;;;;;1.64;76.05;94797.66;5096500;28;20224;-70
2022/12/24 04:26:02;;;;;;;30.67;27.77;;;;;;;1.56;75.33;94804.63;5096408;28;20204;-70
2022/12/24 04:28:29;;;;;;;32.45;29.30;;;;;;;1.52;75.58;94821.81;5096425;28;20212;-70
2022/12/24 04:30:58;;;;;;;31.25;28.20;;;;;;;1.48;75.18;94820.81;5096920;28;20197;-71
2022/12/24 04:33:25;;;;;;;29.60;26.67;;;;;;;1.46;75.69;94818.41;5096529;28;20196;-71
2022/12/24 04:35:52;;;;;;;24.77;22.48;;;;;;;1.54;76.35;94819.63;5096291;28;20204;-70
2022/12/24 04:38:19;;;;;;;23.17;20.98;;;;;;;1.59;76.40;94823.03;5096323;28;20205;-70
2022/12/24 04:40:46;;;;;;;20.83;18.83;;;;;;;1.67;76.89;94825.06;5096417;28;20192;-70
2022/12/24 04:43:14;;;;;;;20.92;18.98;;;;;;;1.71;77.22;94830.69;5096693;28;20208;-70
2022/12/24 04:45:41;;;;;;;20.70;18.85;;;;;;;1.74;76.63;94819.19;5096578;28;20193;-71
2022/12/24 04:48:07;;;;;;;24.00;21.80;;;;;;;1.77;77.03;94818.59;5096226;28;20222;-70
2022/12/24 04:50:34;;;;;;;25.95;23.45;;;;;;;1.76;76.74;94813.47;5096294;28;20275;-70
2022/12/24 04:53:01;;;;;;;25.90;23.50;;;;;;;1.69;76.21;94813.88;5096788;28;20619;-70
2022/12/24 04:55:28;;;;;;;25.27;23.00;;;;;;;1.64;75.83;94811.25;5096033;28;20184;-70
2022/12/24 04:57:54;;;;;;;25.65;23.25;;;;;;;1.60;76.07;94802.09;5095934;28;20188;-70
2022/12/24 05:00:23;;;;;;;27.40;24.65;;;;;;;1.55;75.89;94803.00;5095979;28;20193;-70
2022/12/24 05:02:49;;;;;;;27.05;24.73;;;;;;;1.48;75.71;94809.94;5095960;28;20212;-70
2022/12/24 05:05:16;;;;;;;27.13;24.58;;;;;;;1.42;75.91;94801.91;5095821;28;20201;-70
2022/12/24 05:07:43;;;;;;;27.60;25.02;;;;;;;1.47;75.93;94795.53;5096185;28;20650;-70
2022/12/24 05:10:11;;;;;;;26.65;24.33;;;;;;;1.43;76.36;94797.25;5095757;28;20196;-70
2022/12/24 05:12:37;;;;;;;27.52;24.85;;;;;;;1.42;75.99;94793.75;5095499;28;20215;-71
2022/12/24 05:15:05;;;;;;;27.67;25.08;;;;;;;1.48;76.14;94780.84;5095564;28;20188;-71
2022/12/24 05:17:33;;;;;;;28.80;26.15;;;;;;;1.50;76.31;94783.28;5095862;28;20211;-70
2022/12/24 05:20:00;;;;;;;28.17;25.67;;;;;;;1.44;76.10;94786.06;5095908;28;20197;-70
2022/12/24 05:27:54;;;;;;;27.10;24.67;;;;;;;1.35;76.58;94792.53;5095202;28;20192;-70
2022/12/24 05:30:21;;;;;;;27.48;25.08;;;;;;;1.36;76.35;94805.00;5095194;28;20199;-70
2022/12/24 05:32:49;;;;;;;27.52;25.02;;;;;;;1.37;76.27;94804.69;5095254;28;20197;-71
2022/12/24 05:35:16;;;;;;;26.88;24.48;;;;;;;1.42;77.09;94811.97;5095637;28;20265;-70
2022/12/24 05:37:43;;;;;;;27.55;25.00;;;;;;;1.50;77.35;94799.59;5094947;28;20200;-70
2022/12/24 05:40:10;;;;;;;27.45;24.75;;;;;;;1.51;77.54;94795.75;5095111;28;20240;-70
2022/12/24 05:42:37;;;;;;;31.88;28.88;;;;;;;1.51;77.19;94788.41;5095124;28;20204;-70
2022/12/24 05:45:04;;;;;;;33.15;30.05;;;;;;;1.43;76.52;94798.06;5095708;28;20192;-71
2022/12/24 05:47:31;;;;;;;33.85;30.80;;;;;;;1.37;76.13;94793.81;5094986;28;20199;-69
2022/12/24 05:49:59;;;;;;;32.60;29.80;;;;;;;1.36;77.26;94780.56;5095045;28;20536;-70
2022/12/24 05:52:26;;;;;;;31.60;28.80;;;;;;;1.40;77.29;94785.06;5094611;28;20199;-70
2022/12/24 05:54:52;;;;;;;31.48;28.67;;;;;;;1.48;77.16;94775.41;5095657;28;20196;-70
2022/12/24 05:57:19;;;;;;;32.88;29.88;;;;;;;1.49;76.99;94784.34;5094847;28;20192;-70
2022/12/24 05:59:47;;;;;;;32.50;29.70;;;;;;;1.53;77.26;94786.19;5094975;28;20192;-70
2022/12/24 06:02:14;;;;;;;32.50;29.35;;;;;;;1.59;76.86;94786.88;5094971;28;20208;-71
2022/12/24 06:04:41;;;;;;;28.70;26.17;;;;;;;1.60;77.45;94793.94;5094472;28;20227;-70
2022/12/24 06:07:09;;;;;;;29.95;27.13;;;;;;;1.65;77.55;94794.63;5095019;28;20196;-71
2022/12/24 06:09:35;;;;;;;31.15;28.20;;;;;;;1.72;77.58;94793.44;5094190;28;20208;-70
2022/12/24 06:12:02;;;;;;;29.70;27.05;;;;;;;1.73;77.04;94797.75;5094840;28;20184;-70
2022/12/24 06:14:29;;;;;;;29.92;27.05;;;;;;;1.73;77.44;94804.00;5095316;28;20510;-70
2022/12/24 06:16:56;;;;;;;28.52;25.90;;;;;;;1.78;77.09;94806.63;5094313;28;20537;-70
2022/12/24 06:19:23;;;;;;;28.17;25.58;;;;;;;1.83;77.28;94811.16;5094623;28;20208;-71
2022/12/24 06:21:50;;;;;;;35.88;32.53;;;;;;;1.82;77.03;94804.09;5094753;28;20207;-70
2022/12/24 06:24:18;;;;;;;39.28;35.35;;;;;;;1.80;77.00;94811.75;5094417;28;20212;-70
2022/12/24 06:26:45;;;;;;;37.38;33.75;;;;;;;1.77;76.77;94812.34;5094778;28;20207;-70
2022/12/24 06:29:12;;;;;;;33.97;30.58;;;;;;;1.75;76.85;94814.59;5094137;28;20203;-70
2022/12/24 06:31:38;;;;;;;35.22;31.52;;;;;;;1.78;77.25;94811.22;5094420;28;20199;-70
2022/12/24 06:34:05;;;;;;;38.13;34.45;;;;;;;1.81;77.54;94807.91;5094443;28;20208;-70
2022/12/24 06:36:32;;;;;;;37.97;34.45;;;;;;;1.88;77.73;94821.91;5094378;28;20206;-70
2022/12/24 06:38:59;;;;;;;36.05;32.72;;;;;;;1.93;77.48;94829.97;5093843;28;20232;-70
2022/12/24 06:41:27;;;;;;;37.20;33.53;;;;;;;1.98;77.70;94829.06;5094575;28;20192;-70
2022/12/24 06:43:54;;;;;;;38.30;34.92;;;;;;;2.03;77.44;94831.66;5094385;28;20231;-70
2022/12/24 06:46:21;;;;;;;38.13;34.25;;;;;;;2.05;77.49;94832.97;5094311;28;20196;-70
2022/12/24 06:48:48;;;;;;;34.67;31.40;;;;;;;2.08;76.82;94832.38;5093969;28;20210;-70
2022/12/24 06:51:18;;;;;;;37.85;34.40;;;;;;;2.13;77.18;94834.16;5093995;28;20192;-70
2022/12/24 06:53:45;;;;;;;35.00;31.70;;;;;;;2.17;77.55;94835.16;5094274;28;20196;-70
2022/12/24 06:56:13;;;;;;;34.83;31.70;;;;;;;2.20;77.35;94829.09;5093848;28;20200;-71
2022/12/24 06:58:41;;;;;;;34.00;30.80;;;;;;;2.27;76.96;94825.97;5094060;28;20204;-70
2022/12/24 07:01:10;;;;;;;33.90;30.58;;;;;;;2.36;77.59;94827.69;5094195;28;20199;-70
2022/12/24 07:03:37;;;;;;;39.58;35.95;;;;;;;2.44;77.45;94828.84;5094022;28;20216;-70
2022/12/24 07:06:04;;;;;;;44.17;39.80;;;;;;;2.49;77.47;94826.00;5093792;28;20199;-70
2022/12/24 07:08:32;;;;;;;49.88;44.95;;;;;;;2.55;77.33;94843.84;5093785;28;20196;-70
2022/12/24 07:10:59;;;;;;;50.03;45.17;;;;;;;2.59;77.68;94831.22;5094014;28;20211;-70
2022/12/24 07:13:26;;;;;;;50.83;45.80;;;;;;;2.66;77.75;94833.53;5093740;28;20547;-70
2022/12/24 07:15:59;;;;;;;74.40;67.13;;;;;;;2.75;78.16;94839.03;5094064;28;20200;-72
2022/12/24 07:18:27;;;;;;;139.05;125.40;;;;;;;2.84;78.25;94837.19;5093634;28;20200;-70
2022/12/24 07:20:54;;;;;;;123.88;111.57;;;;;;;2.88;78.48;94830.78;5094396;28;20207;-71
2022/12/24 07:23:21;;;;;;;96.25;86.45;;;;;;;2.93;78.05;94829.84;5097599;28;20220;-71
2022/12/24 07:25:49;;;;;;;83.45;74.95;;;;;;;2.94;78.24;94836.94;5097880;28;20204;-70
2022/12/24 07:28:16;;;;;;;87.80;79.07;;;;;;;2.99;78.45;94827.81;5097786;28;20188;-72
2022/12/24 07:30:43;;;;;;;82.28;74.55;;;;;;;3.04;78.34;94835.88;5098169;28;20616;-72
2022/12/24 07:33:11;;;;;;;81.35;73.43;;;;;;;3.05;78.21;94841.03;5098106;28;20197;-72
2022/12/24 07:35:38;;;;;;;70.75;63.85;;;;;;;3.10;77.76;94842.81;5097784;28;20624;-72
2022/12/24 07:38:04;;;;;;;62.28;56.08;;;;;;;3.15;77.90;94848.13;5097369;28;20207;-72
2022/12/24 07:40:33;;;;;;;55.28;49.75;;;;;;;3.17;77.71;94836.91;5097536;28;20223;-72
2022/12/24 07:43:00;;;;;;;57.28;51.38;;;;;;;3.23;77.48;94841.09;5097439;28;20200;-72
2022/12/24 07:45:27;;;;;;;51.50;46.50;;;;;;;3.33;77.96;94843.56;5097422;28;20574;-72
2022/12/24 07:47:54;;;;;;;58.80;52.90;;;;;;;3.44;78.11;94850.38;5097506;28;20192;-71
2022/12/24 07:50:22;;;;;;;61.95;55.90;;;;;;;3.52;77.88;94856.97;5096957;28;20196;-70
2022/12/24 07:52:49;;;;;;;59.60;53.60;;;;;;;3.59;77.53;94857.34;5097276;28;20208;-72
2022/12/24 07:55:17;;;;;;;56.13;50.58;;;;;;;3.73;76.93;94857.25;5097454;28;20207;-71
2022/12/24 07:57:43;;;;;;;55.80;50.33;;;;;;;3.88;76.90;94856.81;5096976;28;20200;-71
2022/12/24 08:00:12;;;;;;;57.70;51.90;;;;;;;4.07;77.18;94859.31;5097477;28;20196;-70
2022/12/24 08:02:39;;;;;;;57.85;52.15;;;;;;;4.24;76.71;94859.31;5096870;28;20254;-70
2022/12/24 08:05:06;;;;;;;63.42;57.17;;;;;;;4.35;76.45;94862.56;5097274;28;20227;-70
2022/12/24 08:07:35;;;;;;;65.57;59.00;;;;;;;4.39;75.62;94868.19;5096954;28;20193;-70
2022/12/24 08:10:01;;;;;;;63.28;56.97;;;;;;;4.42;75.67;94876.56;5097223;28;20188;-70
2022/12/24 08:12:28;;;;;;;56.53;50.90;;;;;;;4.45;75.86;94875.13;5096651;28;20188;-70
2022/12/24 08:14:55;;;;;;;56.88;51.30;;;;;;;4.43;75.35;94875.44;5097577;28;20192;-70
2022/12/24 08:17:22;;;;;;;65.18;58.83;;;;;;;4.48;75.51;94878.03;5097040;28;20203;-70
2022/12/24 08:19:49;;;;;;;61.25;55.38;;;;;;;4.54;75.93;94868.56;5096491;28;20204;-70
2022/12/24 08:22:15;;;;;;;54.85;49.25;;;;;;;4.54;75.83;94860.38;5096440;28;20219;-70
2022/12/24 08:24:44;;;;;;;59.70;53.75;;;;;;;4.60;75.99;94861.00;5096667;28;20212;-70
2022/12/24 08:27:11;;;;;;;56.00;50.60;;;;;;;4.60;75.76;94863.72;5096680;28;20249;-70
2022/12/24 08:29:37;;;;;;;54.13;48.63;;;;;;;4.58;75.64;94866.78;5096332;28;20200;-70
2022/12/24 08:32:05;;;;;;;47.30;42.45;;;;;;;4.56;76.04;94855.38;5096344;28;20196;-72
2022/12/24 08:34:32;;;;;;;37.22;33.50;;;;;;;4.60;75.65;94858.25;5096512;28;20203;-72
2022/12/24 08:36:59;;;;;;;37.55;33.95;;;;;;;4.64;75.36;94847.50;5096858;28;20218;-72
2022/12/24 08:39:26;;;;;;;39.15;35.40;;;;;;;4.66;75.12;94843.34;5096398;28;20232;-70
2022/12/24 08:41:54;;;;;;;41.03;36.85;;;;;;;4.74;75.24;94849.94;5096350;28;20192;-70
2022/12/24 08:44:21;;;;;;;39.85;35.85;;;;;;;4.78;75.36;94857.16;5095962;28;20216;-70
2022/12/24 08:46:47;;;;;;;39.85;35.85;;;;;;;4.81;75.21;94863.91;5096959;28;20194;-70
2022/12/24 08:49:14;;;;;;;40.78;36.78;;;;;;;4.86;74.76;94871.13;5097078;28;20197;-70
2022/12/24 08:51:41;;;;;;;39.42;35.60;;;;;;;4.85;74.50;94875.81;5096059;28;20188;-70
2022/12/24 08:54:08;;;;;;;39.38;35.47;;;;;;;4.88;74.59;94875.16;5095963;28;20197;-70
2022/12/24 08:56:35;;;;;;;39.78;35.78;;;;;;;4.89;74.36;94874.03;5096102;28;20246;-70
2022/12/24 08:59:03;;;;;;;39.35;35.42;;;;;;;4.89;74.10;94870.50;5096683;28;20590;-70
2022/12/24 09:01:30;;;;;;;39.42;35.42;;;;;;;4.89;73.74;94871.28;5097068;28;20262;-70
2022/12/24 09:03:57;;;;;;;37.67;34.08;;;;;;;4.91;74.23;94866.31;5096752;28;20235;-70
2022/12/24 09:06:24;;;;;;;38.85;35.05;;;;;;;4.98;73.90;94860.38;5095888;28;20195;-70
2022/12/24 09:08:50;;;;;;;36.88;33.13;;;;;;;5.03;73.82;94854.75;5096049;28;20188;-70
2022/12/24 09:11:19;;;;;;;35.83;32.33;;;;;;;5.10;74.13;94854.25;5096758;28;20192;-70
2022/12/24 09:13:46;;;;;;;37.40;33.88;;;;;;;5.16;73.77;94863.91;5096651;28;20194;-70
2022/12/24 09:16:14;;;;;;;36.40;32.85;;;;;;;5.23;73.88;94856.03;5096770;28;20253;-70
2022/12/24 09:18:41;;;;;;;34.22;30.70;;;;;;;5.26;73.75;94860.81;5096941;28;20181;-70
2022/12/24 09:21:10;;;;;;;33.38;30.20;;;;;;;5.29;73.61;94852.75;5095850;28;20192;-70
2022/12/24 09:23:39;;;;;;;33.47;30.25;;;;;;;5.37;73.49;94840.19;5096619;28;20208;-70
2022/12/24 09:26:06;;;;;;;34.55;31.20;;;;;;;5.46;73.85;94830.06;5096311;28;20184;-70
2022/12/24 09:28:33;;;;;;;33.75;30.38;;;;;;;5.50;73.42;94841.94;5095719;28;20651;-70
2022/12/24 09:31:02;;;;;;;35.22;31.83;;;;;;;5.56;73.50;94842.59;5095428;28;20200;-70
2022/12/24 09:33:32;;;;;;;33.58;30.27;;;;;;;5.62;73.33;94843.19;5095273;28;20270;-70
2022/12/24 09:35:59;;;;;;;33.90;30.70;;;;;;;5.69;73.41;94852.50;5095388;28;20195;-70
2022/12/24 09:38:27;;;;;;;38.83;35.00;;;;;;;5.75;73.48;94853.16;5094983;28;20224;-69
2022/12/24 09:40:55;;;;;;;42.15;38.05;;;;;;;5.77;73.00;94837.19;5095500;28;20274;-70
2022/12/24 09:43:24;;;;;;;43.00;38.75;;;;;;;5.84;72.71;94836.69;5095840;28;20188;-70
2022/12/24 09:46:06;;;;;;;41.45;37.30;;;;;;;5.90;72.81;94827.97;5094982;28;20216;-70
2022/12/24 09:48:38;;;;;;;44.38;40.13;;;;;;;5.98;72.41;94820.88;5095122;28;20239;-70
2022/12/24 09:51:08;;;;;;;43.63;39.63;;;;;;;6.05;72.43;94831.31;5096116;28;20184;-70
2022/12/24 09:53:38;;;;;;;58.40;52.63;;;;;;;6.14;72.18;94840.28;5095210;28;20192;-69
2022/12/24 09:56:11;;;;;;;57.50;51.88;;;;;;;6.17;72.29;94834.97;5095007;28;20608;-70
2022/12/24 09:58:41;;;;;;;62.05;55.97;;;;;;;6.21;71.54;94824.94;5094997;28;20205;-70
2022/12/24 10:01:12;;;;;;;76.78;69.18;;;;;;;6.18;72.03;94822.88;5094956;28;20188;-70
2022/12/24 10:03:41;;;;;;;90.65;81.75;;;;;;;6.20;71.98;94825.25;5095967;28;20188;-72
2022/12/24 10:06:11;;;;;;;91.10;81.80;;;;;;;6.22;72.00;94839.44;5095714;28;20200;-72
2022/12/24 10:08:47;;;;;;;108.05;96.68;;;;;;;6.23;71.77;94841.03;5095762;28;20207;-72
2022/12/24 10:11:19;;;;;;;112.53;100.68;;;;;;;6.19;71.66;94829.94;5095549;28;20207;-73
2022/12/24 10:14:02;;;;;;;122.20;109.43;;;;;;;6.12;71.73;94835.13;5095902;28;20188;-73
2022/12/24 10:16:35;;;;;;;103.45;92.75;;;;;;;6.10;71.47;94834.69;5094743;28;20535;-72
2022/12/24 10:19:12;;;;;;;89.70;80.75;;;;;;;5.91;71.13;94826.81;5095788;28;20196;-72
2022/12/24 10:21:50;;;;;;;89.38;80.30;;;;;;;5.82;71.35;94822.53;5095691;28;20251;-72
2022/12/24 10:24:22;;;;;;;84.38;75.88;;;;;;;5.87;71.88;94817.66;5095186;28;20192;-70
2022/12/24 10:26:53;;;;;;;76.95;69.30;;;;;;;5.92;71.33;94828.47;5095479;28;20196;-70
2022/12/24 10:29:21;;;;;;;84.38;75.90;;;;;;;6.00;71.79;94826.84;5094823;28;20257;-70
2022/12/24 10:31:55;;;;;;;84.68;76.35;;;;;;;6.10;71.58;94837.41;5094686;28;20188;-69
2022/12/24 10:34:24;;;;;;;83.00;74.65;;;;;;;6.20;71.19;94836.22;5094170;28;20211;-69
2022/12/24 10:36:51;;;;;;;78.20;70.10;;;;;;;6.25;71.09;94825.88;5095661;28;20176;-69
2022/12/24 10:39:20;;;;;;;75.95;68.43;;;;;;;6.31;71.08;94814.72;5094208;28;20228;-70
2022/12/24 10:41:48;;;;;;;76.57;69.13;;;;;;;6.33;70.14;94823.44;5095418;28;20196;-70
2022/12/24 10:44:18;;;;;;;80.18;72.07;;;;;;;6.34;70.32;94812.13;5094175;28;20196;-70
2022/12/24 10:46:47;;;;;;;80.88;73.05;;;;;;;6.41;70.30;94812.41;5094899;28;20196;-70
2022/12/24 10:49:15;;;;;;;85.18;77.00;;;;;;;6.47;70.59;94813.03;5094401;28;20189;-70
2022/12/24 10:51:48;;;;;;;89.78;80.97;;;;;;;6.47;70.34;94816.56;5095430;28;20271;-70
2022/12/24 10:54:17;;;;;;;88.25;78.82;;;;;;;6.48;70.13;94815.41;5094647;28;20208;-70
2022/12/24 10:56:49;;;;;;;89.78;80.00;;;;;;;6.48;69.68;94807.19;5098317;28;20188;-70
2022/12/24 10:59:26;;;;;;;92.82;83.32;;;;;;;6.49;69.88;94817.00;5099814;28;20184;-70
2022/12/24 11:01:54;;;;;;;93.75;84.22;;;;;;;6.48;69.62;94820.09;5099508;28;20184;-70
2022/12/24 11:04:23;;;;;;;95.47;85.45;;;;;;;6.46;69.50;94830.56;5098997;28;20203;-70
2022/12/24 11:06:56;;;;;;;95.13;85.20;;;;;;;6.43;69.25;94825.78;5098215;28;20188;-70
2022/12/24 11:09:25;;;;;;;91.38;81.88;;;;;;;6.40;69.79;94823.72;5098689;28;20262;-70
2022/12/24 11:11:52;;;;;;;91.22;81.80;;;;;;;6.44;69.88;94822.69;5098557;28;20200;-70
2022/12/24 11:14:20;;;;;;;92.15;82.57;;;;;;;6.52;69.93;94821.03;5098810;28;20196;-70
2022/12/24 11:16:52;;;;;;;93.20;82.93;;;;;;;6.59;69.63;94807.59;5099132;28;20185;-70
2022/12/24 11:19:22;;;;;;;83.13;74.30;;;;;;;6.61;69.21;94808.09;5098769;28;20249;-70
2022/12/24 11:22:00;;;;;;;81.90;73.72;;;;;;;6.66;69.54;94805.13;5098952;28;20199;-70
2022/12/24 11:24:29;;;;;;;81.20;72.88;;;;;;;6.69;69.14;94811.91;5097628;28;20214;-70
2022/12/24 11:27:24;;;;;;;79.97;71.63;;;;;;;6.73;69.24;94813.63;5097661;28;20200;-70
2022/12/24 11:29:51;;;;;;;81.65;73.10;;;;;;;6.88;68.62;94811.41;5098511;28;20196;-70
2022/12/24 11:32:20;;;;;;;81.35;73.13;;;;;;;7.10;68.58;94816.53;5097845;28;20181;-69
2022/12/24 11:34:47;;;;;;;86.95;78.10;;;;;;;7.69;68.69;94818.97;5099011;28;20212;-70
2022/12/24 11:37:19;;;;;;;83.20;74.53;;;;;;;9.21;66.19;94808.78;5098692;28;20195;-70
2022/12/24 11:39:49;;;;;;;87.10;77.95;;;;;;;10.76;61.47;94798.50;5097395;28;20254;-70